NBEK1: Neosho R at Burlingame Rd nr Emporia KS

                                SHEF ID:       NBEK1     NEOSHO R AT BURLINGAME RD NR EMP
STATION TYPE:

PRECIP STAGE STAGE(2) RIV-FLOW BAT-LOAD
in ft ft cfs volt
Ccp-Rev Ccp-Rev Ccp-Rev Ccp-Rev Ccp-Rev
(America/Chicago)
05/05 00:00 0.00 4.77 4.05 396 12.43
05/05 01:00 0.00 4.77 4.06 396 12.41
05/05 02:00 0.00 4.79 4.06 404 12.35
05/05 03:00 0.00 4.79 4.07 404 12.33
05/05 04:00 0.00 4.79 4.06 404 12.30
05/05 05:00 0.00 4.78 4.04 400 12.26
05/05 06:00 0.00 4.78 4.05 400 12.21
05/05 07:00 0.00 4.78 4.05 400 12.20
05/05 08:00 0.00 4.79 4.06 404 12.19
05/05 09:00 0.00 4.81 4.07 412 12.24
05/05 10:00 0.00 4.85 4.08 428 12.36
05/05 11:00 0.00 4.91 4.10 453 12.76
05/05 12:00 0.00 4.99 4.12 488 12.86
05/05 13:00 0.00 5.08 4.16 524 12.58
05/05 14:00 0.00 5.19 4.20 570 13.07
05/05 15:00 0.00 5.30 4.23 614 13.01
05/05 16:00 0.00 5.48 4.28 683 12.85
05/05 17:00 0.00 5.64 4.34 755 12.94
05/05 18:00 0.00 5.73 4.37 789 12.86
05/05 19:00 0.00 5.78 4.37 807 12.73
05/05 20:00 0.00 5.82 4.40 820 12.62
05/05 21:00 0.00 5.84 4.40 827 12.50
05/05 22:00 0.00 5.82 4.39 820 12.47
05/05 23:00 0.00 5.77 4.38 803 12.44
Data processed at Wed 06May2026 04:36 GMT

NOTICE: If you are parsing this page

Please convert to using our Data API. Starting early 2026 we will be migrating to: https://water.usace.army.mil with modern pages rendered in JavaScript. When this migration completes you will no longer be able to scrape this page! CWMSDataAPI (CDA)

Timeseries IDs (TSIDs)

TSIDs used from left to right in the data table
EMPO.Precip-Inc.Total.1Hour.1Hour.Ccp-Rev
EMPO.Stage.Inst.1Hour.0.Ccp-Rev
EMPO.Stage-Alt.Inst.1Hour.0.Ccp-Rev
EMPO.Flow.Inst.1Hour.0.Ccp-Rev
EMPO.Volt-Battery Load.Inst.1Hour.0.Ccp-Rev

                            

All information presented herein is the property of the government of the United States of America and may be revised or deleted at any time without prior notice. Dissemination of this information without the expressed written consent of the Public Affairs Office, Tulsa District U.S. Army Corps of Engineers is strictly prohibited. These data are gathered electronically and, as presented, have NOT undergone any form of quality control. These data are NOT guaranteed to be valid or correct.